sensor_id;sensor_type;location;lat;lon;timestamp;P1;durP1;ratioP1;P2;durP2;ratioP2
2123;SDS011;1068;52.460;13.528;2023-06-22T00:00:51;16.90;;;15.60;;
2123;SDS011;1068;52.460;13.528;2023-06-22T00:03:19;19.00;;;17.03;;
2123;SDS011;1068;52.460;13.528;2023-06-22T00:05:45;18.83;;;17.33;;
2123;SDS011;1068;52.460;13.528;2023-06-22T00:08:12;17.93;;;16.13;;
2123;SDS011;1068;52.460;13.528;2023-06-22T00:10:41;17.60;;;16.20;;
2123;SDS011;1068;52.460;13.528;2023-06-22T00:13:08;17.40;;;15.90;;
2123;SDS011;1068;52.460;13.528;2023-06-22T00:15:36;17.93;;;16.37;;
2123;SDS011;1068;52.460;13.528;2023-06-22T00:18:03;19.40;;;17.80;;
2123;SDS011;1068;52.460;13.528;2023-06-22T00:20:30;18.67;;;17.07;;
2123;SDS011;1068;52.460;13.528;2023-06-22T00:22:58;18.00;;;16.50;;
2123;SDS011;1068;52.460;13.528;2023-06-22T00:25:25;17.70;;;16.10;;
2123;SDS011;1068;52.460;13.528;2023-06-22T00:27:54;19.10;;;17.50;;
2123;SDS011;1068;52.460;13.528;2023-06-22T00:30:20;16.40;;;15.10;;
2123;SDS011;1068;52.460;13.528;2023-06-22T00:32:47;17.20;;;15.40;;
2123;SDS011;1068;52.460;13.528;2023-06-22T00:35:14;16.73;;;15.47;;
2123;SDS011;1068;52.460;13.528;2023-06-22T00:37:41;17.00;;;15.50;;
2123;SDS011;1068;52.460;13.528;2023-06-22T00:40:08;19.40;;;17.40;;
2123;SDS011;1068;52.460;13.528;2023-06-22T00:42:37;18.10;;;16.57;;
2123;SDS011;1068;52.460;13.528;2023-06-22T00:45:06;17.53;;;16.00;;
2123;SDS011;1068;52.460;13.528;2023-06-22T00:47:33;16.33;;;15.10;;
2123;SDS011;1068;52.460;13.528;2023-06-22T00:50:00;17.10;;;15.67;;
2123;SDS011;1068;52.460;13.528;2023-06-22T00:52:28;17.40;;;16.00;;
2123;SDS011;1068;52.460;13.528;2023-06-22T00:54:57;17.83;;;16.33;;
2123;SDS011;1068;52.460;13.528;2023-06-22T00:57:26;17.33;;;16.00;;
2123;SDS011;1068;52.460;13.528;2023-06-22T00:59:54;18.23;;;16.73;;
2123;SDS011;1068;52.460;13.528;2023-06-22T01:02:22;17.97;;;16.40;;
2123;SDS011;1068;52.460;13.528;2023-06-22T01:04:49;18.00;;;16.60;;
2123;SDS011;1068;52.460;13.528;2023-06-22T01:07:17;18.40;;;16.80;;
2123;SDS011;1068;52.460;13.528;2023-06-22T01:09:49;19.53;;;17.77;;
2123;SDS011;1068;52.460;13.528;2023-06-22T01:12:18;18.20;;;16.60;;
2123;SDS011;1068;52.460;13.528;2023-06-22T01:14:47;19.70;;;18.00;;
2123;SDS011;1068;52.460;13.528;2023-06-22T01:17:17;19.10;;;17.40;;
2123;SDS011;1068;52.460;13.528;2023-06-22T01:19:47;17.57;;;16.07;;
2123;SDS011;1068;52.460;13.528;2023-06-22T01:22:17;17.40;;;15.90;;
2123;SDS011;1068;52.460;13.528;2023-06-22T01:24:48;17.30;;;15.90;;
2123;SDS011;1068;52.460;13.528;2023-06-22T01:27:22;18.70;;;17.10;;
2123;SDS011;1068;52.460;13.528;2023-06-22T01:29:55;17.60;;;16.20;;
2123;SDS011;1068;52.460;13.528;2023-06-22T01:32:25;18.23;;;16.43;;
2123;SDS011;1068;52.460;13.528;2023-06-22T01:34:52;17.90;;;16.50;;
2123;SDS011;1068;52.460;13.528;2023-06-22T01:37:19;19.60;;;18.00;;
2123;SDS011;1068;52.460;13.528;2023-06-22T01:39:46;16.60;;;15.20;;
2123;SDS011;1068;52.460;13.528;2023-06-22T01:42:13;17.93;;;16.33;;
2123;SDS011;1068;52.460;13.528;2023-06-22T01:44:40;18.27;;;16.67;;
2123;SDS011;1068;52.460;13.528;2023-06-22T01:47:08;17.27;;;15.63;;
2123;SDS011;1068;52.460;13.528;2023-06-22T01:49:36;15.27;;;13.87;;
2123;SDS011;1068;52.460;13.528;2023-06-22T01:52:03;16.37;;;15.07;;
2123;SDS011;1068;52.460;13.528;2023-06-22T01:54:30;16.23;;;14.93;;
2123;SDS011;1068;52.460;13.528;2023-06-22T01:56:57;16.17;;;14.83;;
2123;SDS011;1068;52.460;13.528;2023-06-22T01:59:25;16.33;;;15.03;;
2123;SDS011;1068;52.460;13.528;2023-06-22T02:01:54;16.13;;;14.83;;
2123;SDS011;1068;52.460;13.528;2023-06-22T02:04:25;17.20;;;15.80;;
2123;SDS011;1068;52.460;13.528;2023-06-22T02:06:54;15.43;;;14.13;;
2123;SDS011;1068;52.460;13.528;2023-06-22T02:09:22;16.93;;;15.43;;
2123;SDS011;1068;52.460;13.528;2023-06-22T02:11:50;15.70;;;14.33;;
2123;SDS011;1068;52.460;13.528;2023-06-22T02:14:19;17.67;;;15.80;;
2123;SDS011;1068;52.460;13.528;2023-06-22T02:16:47;17.87;;;16.17;;
2123;SDS011;1068;52.460;13.528;2023-06-22T02:19:14;16.27;;;15.07;;
2123;SDS011;1068;52.460;13.528;2023-06-22T02:21:44;17.70;;;16.10;;
2123;SDS011;1068;52.460;13.528;2023-06-22T02:24:11;16.30;;;14.80;;
2123;SDS011;1068;52.460;13.528;2023-06-22T02:26:38;18.40;;;16.70;;
2123;SDS011;1068;52.460;13.528;2023-06-22T02:29:07;18.40;;;16.33;;
2123;SDS011;1068;52.460;13.528;2023-06-22T02:31:34;16.00;;;14.60;;
2123;SDS011;1068;52.460;13.528;2023-06-22T02:34:01;16.20;;;14.90;;
2123;SDS011;1068;52.460;13.528;2023-06-22T02:36:28;17.63;;;16.20;;
2123;SDS011;1068;52.460;13.528;2023-06-22T02:38:56;15.23;;;14.03;;
2123;SDS011;1068;52.460;13.528;2023-06-22T02:41:26;16.93;;;15.20;;
2123;SDS011;1068;52.460;13.528;2023-06-22T02:43:53;18.10;;;16.60;;
2123;SDS011;1068;52.460;13.528;2023-06-22T02:46:19;19.00;;;17.30;;
2123;SDS011;1068;52.460;13.528;2023-06-22T02:48:47;16.43;;;15.20;;
2123;SDS011;1068;52.460;13.528;2023-06-22T02:51:14;17.50;;;16.10;;
2123;SDS011;1068;52.460;13.528;2023-06-22T02:53:41;15.53;;;14.33;;
2123;SDS011;1068;52.460;13.528;2023-06-22T02:56:10;15.83;;;14.57;;
2123;SDS011;1068;52.460;13.528;2023-06-22T02:58:37;17.00;;;15.50;;
2123;SDS011;1068;52.460;13.528;2023-06-22T03:01:04;17.03;;;15.73;;
2123;SDS011;1068;52.460;13.528;2023-06-22T03:03:31;18.30;;;16.43;;
2123;SDS011;1068;52.460;13.528;2023-06-22T03:05:58;18.27;;;16.67;;
2123;SDS011;1068;52.460;13.528;2023-06-22T03:08:27;17.43;;;15.90;;
2123;SDS011;1068;52.460;13.528;2023-06-22T03:10:53;18.20;;;16.67;;
2123;SDS011;1068;52.460;13.528;2023-06-22T03:13:22;17.50;;;15.93;;
2123;SDS011;1068;52.460;13.528;2023-06-22T03:15:49;18.17;;;16.57;;
2123;SDS011;1068;52.460;13.528;2023-06-22T03:18:16;18.40;;;16.80;;
2123;SDS011;1068;52.460;13.528;2023-06-22T03:20:43;19.03;;;17.33;;
2123;SDS011;1068;52.460;13.528;2023-06-22T03:23:10;18.50;;;16.90;;
2123;SDS011;1068;52.460;13.528;2023-06-22T03:25:37;18.80;;;17.17;;
2123;SDS011;1068;52.460;13.528;2023-06-22T03:28:03;18.60;;;16.83;;
2123;SDS011;1068;52.460;13.528;2023-06-22T03:30:32;18.60;;;16.83;;
2123;SDS011;1068;52.460;13.528;2023-06-22T03:32:59;18.33;;;16.93;;
2123;SDS011;1068;52.460;13.528;2023-06-22T03:35:25;18.53;;;17.03;;
2123;SDS011;1068;52.460;13.528;2023-06-22T03:37:53;17.77;;;16.27;;
2123;SDS011;1068;52.460;13.528;2023-06-22T03:40:20;20.10;;;18.40;;
2123;SDS011;1068;52.460;13.528;2023-06-22T03:42:47;20.20;;;18.30;;
2123;SDS011;1068;52.460;13.528;2023-06-22T03:45:14;19.03;;;17.37;;
2123;SDS011;1068;52.460;13.528;2023-06-22T03:47:42;19.90;;;18.20;;
2123;SDS011;1068;52.460;13.528;2023-06-22T03:50:09;16.30;;;15.00;;
2123;SDS011;1068;52.460;13.528;2023-06-22T03:52:36;18.73;;;16.67;;
2123;SDS011;1068;52.460;13.528;2023-06-22T03:55:03;18.83;;;17.33;;
2123;SDS011;1068;52.460;13.528;2023-06-22T03:57:30;19.33;;;17.57;;
2123;SDS011;1068;52.460;13.528;2023-06-22T03:59:57;18.20;;;16.70;;
2123;SDS011;1068;52.460;13.528;2023-06-22T04:02:24;17.10;;;15.70;;
2123;SDS011;1068;52.460;13.528;2023-06-22T04:04:52;16.40;;;15.10;;
2123;SDS011;1068;52.460;13.528;2023-06-22T04:07:19;17.40;;;15.80;;
2123;SDS011;1068;52.460;13.528;2023-06-22T04:09:46;16.27;;;14.83;;
2123;SDS011;1068;52.460;13.528;2023-06-22T04:12:13;16.17;;;14.73;;
2123;SDS011;1068;52.460;13.528;2023-06-22T04:14:40;18.03;;;16.00;;
2123;SDS011;1068;52.460;13.528;2023-06-22T04:17:07;14.10;;;12.80;;
2123;SDS011;1068;52.460;13.528;2023-06-22T04:19:34;16.10;;;14.80;;
2123;SDS011;1068;52.460;13.528;2023-06-22T04:22:02;15.27;;;14.00;;
2123;SDS011;1068;52.460;13.528;2023-06-22T04:24:31;16.33;;;14.93;;
2123;SDS011;1068;52.460;13.528;2023-06-22T04:26:58;13.40;;;12.20;;
2123;SDS011;1068;52.460;13.528;2023-06-22T04:29:29;14.27;;;12.93;;
2123;SDS011;1068;52.460;13.528;2023-06-22T04:31:56;14.83;;;13.53;;
2123;SDS011;1068;52.460;13.528;2023-06-22T04:34:27;14.10;;;12.87;;
2123;SDS011;1068;52.460;13.528;2023-06-22T04:36:54;13.03;;;11.83;;
2123;SDS011;1068;52.460;13.528;2023-06-22T04:39:23;13.67;;;12.47;;
2123;SDS011;1068;52.460;13.528;2023-06-22T04:41:51;12.80;;;11.70;;
2123;SDS011;1068;52.460;13.528;2023-06-22T04:44:19;11.73;;;10.67;;
2123;SDS011;1068;52.460;13.528;2023-06-22T04:46:49;12.17;;;11.17;;
2123;SDS011;1068;52.460;13.528;2023-06-22T04:49:18;13.00;;;11.70;;
2123;SDS011;1068;52.460;13.528;2023-06-22T04:51:47;10.83;;;9.93;;
2123;SDS011;1068;52.460;13.528;2023-06-22T04:54:14;11.40;;;10.40;;
2123;SDS011;1068;52.460;13.528;2023-06-22T04:56:42;12.03;;;10.93;;
2123;SDS011;1068;52.460;13.528;2023-06-22T04:59:11;12.63;;;10.83;;
2123;SDS011;1068;52.460;13.528;2023-06-22T05:01:38;10.67;;;9.77;;
2123;SDS011;1068;52.460;13.528;2023-06-22T05:04:05;10.73;;;9.80;;
2123;SDS011;1068;52.460;13.528;2023-06-22T05:06:32;11.57;;;10.57;;
2123;SDS011;1068;52.460;13.528;2023-06-22T05:08:59;12.23;;;10.70;;
2123;SDS011;1068;52.460;13.528;2023-06-22T05:11:28;10.37;;;9.50;;
2123;SDS011;1068;52.460;13.528;2023-06-22T05:13:56;10.50;;;9.70;;
2123;SDS011;1068;52.460;13.528;2023-06-22T05:16:23;9.80;;;9.10;;
2123;SDS011;1068;52.460;13.528;2023-06-22T05:18:51;9.57;;;8.77;;
2123;SDS011;1068;52.460;13.528;2023-06-22T05:21:20;10.73;;;9.53;;
2123;SDS011;1068;52.460;13.528;2023-06-22T05:23:46;9.43;;;8.83;;
2123;SDS011;1068;52.460;13.528;2023-06-22T05:26:13;9.13;;;8.27;;
2123;SDS011;1068;52.460;13.528;2023-06-22T05:28:40;9.47;;;8.57;;
2123;SDS011;1068;52.460;13.528;2023-06-22T05:31:12;8.80;;;8.10;;
2123;SDS011;1068;52.460;13.528;2023-06-22T05:33:39;9.00;;;8.20;;
2123;SDS011;1068;52.460;13.528;2023-06-22T05:36:06;12.23;;;8.93;;
2123;SDS011;1068;52.460;13.528;2023-06-22T05:38:33;8.60;;;7.90;;
2123;SDS011;1068;52.460;13.528;2023-06-22T05:41:00;9.13;;;8.43;;
2123;SDS011;1068;52.460;13.528;2023-06-22T05:43:27;8.60;;;7.97;;
2123;SDS011;1068;52.460;13.528;2023-06-22T05:45:54;9.07;;;8.27;;
2123;SDS011;1068;52.460;13.528;2023-06-22T05:48:22;8.83;;;8.23;;
2123;SDS011;1068;52.460;13.528;2023-06-22T05:50:49;9.30;;;8.60;;
2123;SDS011;1068;52.460;13.528;2023-06-22T05:53:16;7.60;;;7.00;;
2123;SDS011;1068;52.460;13.528;2023-06-22T05:55:43;9.30;;;7.70;;
2123;SDS011;1068;52.460;13.528;2023-06-22T05:58:10;8.43;;;7.73;;
2123;SDS011;1068;52.460;13.528;2023-06-22T06:00:38;8.00;;;7.10;;
2123;SDS011;1068;52.460;13.528;2023-06-22T06:03:05;7.80;;;7.17;;
2123;SDS011;1068;52.460;13.528;2023-06-22T06:05:33;7.60;;;7.00;;
2123;SDS011;1068;52.460;13.528;2023-06-22T06:08:01;8.93;;;7.07;;
2123;SDS011;1068;52.460;13.528;2023-06-22T06:10:29;8.50;;;7.90;;
2123;SDS011;1068;52.460;13.528;2023-06-22T06:12:57;7.80;;;7.10;;
2123;SDS011;1068;52.460;13.528;2023-06-22T06:15:24;7.60;;;7.00;;
2123;SDS011;1068;52.460;13.528;2023-06-22T06:17:51;7.10;;;6.60;;
2123;SDS011;1068;52.460;13.528;2023-06-22T06:20:19;7.20;;;6.60;;
2123;SDS011;1068;52.460;13.528;2023-06-22T06:22:47;8.27;;;7.47;;
2123;SDS011;1068;52.460;13.528;2023-06-22T06:25:14;7.00;;;6.40;;
2123;SDS011;1068;52.460;13.528;2023-06-22T06:27:42;6.50;;;6.10;;
2123;SDS011;1068;52.460;13.528;2023-06-22T06:30:09;6.53;;;5.80;;
2123;SDS011;1068;52.460;13.528;2023-06-22T06:32:36;5.57;;;5.07;;
2123;SDS011;1068;52.460;13.528;2023-06-22T06:35:04;5.37;;;4.83;;
2123;SDS011;1068;52.460;13.528;2023-06-22T06:37:32;6.07;;;5.50;;
2123;SDS011;1068;52.460;13.528;2023-06-22T06:40:00;5.37;;;4.87;;
2123;SDS011;1068;52.460;13.528;2023-06-22T06:42:28;5.10;;;4.70;;
2123;SDS011;1068;52.460;13.528;2023-06-22T06:44:54;5.77;;;5.17;;
2123;SDS011;1068;52.460;13.528;2023-06-22T06:47:21;4.90;;;4.60;;
2123;SDS011;1068;52.460;13.528;2023-06-22T06:49:48;5.40;;;4.63;;
2123;SDS011;1068;52.460;13.528;2023-06-22T06:52:15;4.30;;;4.00;;
2123;SDS011;1068;52.460;13.528;2023-06-22T06:54:42;4.23;;;3.93;;
2123;SDS011;1068;52.460;13.528;2023-06-22T06:57:10;3.83;;;3.60;;
2123;SDS011;1068;52.460;13.528;2023-06-22T06:59:38;4.87;;;4.47;;
2123;SDS011;1068;52.460;13.528;2023-06-22T07:02:05;5.90;;;4.23;;
2123;SDS011;1068;52.460;13.528;2023-06-22T07:04:32;4.30;;;4.00;;
2123;SDS011;1068;52.460;13.528;2023-06-22T07:07:01;4.80;;;4.50;;
2123;SDS011;1068;52.460;13.528;2023-06-22T07:09:28;4.73;;;4.43;;
2123;SDS011;1068;52.460;13.528;2023-06-22T07:11:54;4.87;;;4.37;;
2123;SDS011;1068;52.460;13.528;2023-06-22T07:14:23;5.13;;;4.63;;
2123;SDS011;1068;52.460;13.528;2023-06-22T07:16:50;4.63;;;3.90;;
2123;SDS011;1068;52.460;13.528;2023-06-22T07:19:16;5.17;;;4.73;;
2123;SDS011;1068;52.460;13.528;2023-06-22T07:21:50;5.20;;;4.80;;
2123;SDS011;1068;52.460;13.528;2023-06-22T07:24:17;4.73;;;3.77;;
2123;SDS011;1068;52.460;13.528;2023-06-22T07:26:45;4.50;;;4.10;;
2123;SDS011;1068;52.460;13.528;2023-06-22T07:29:13;4.80;;;4.50;;
2123;SDS011;1068;52.460;13.528;2023-06-22T07:31:41;4.60;;;4.20;;
2123;SDS011;1068;52.460;13.528;2023-06-22T07:34:08;4.90;;;4.50;;
2123;SDS011;1068;52.460;13.528;2023-06-22T07:36:35;8.50;;;4.70;;
2123;SDS011;1068;52.460;13.528;2023-06-22T07:39:02;4.50;;;4.20;;
2123;SDS011;1068;52.460;13.528;2023-06-22T07:41:29;4.53;;;4.10;;
2123;SDS011;1068;52.460;13.528;2023-06-22T07:43:56;5.40;;;4.20;;
2123;SDS011;1068;52.460;13.528;2023-06-22T07:46:23;4.20;;;3.80;;
2123;SDS011;1068;52.460;13.528;2023-06-22T07:48:51;3.53;;;3.33;;
2123;SDS011;1068;52.460;13.528;2023-06-22T07:51:18;4.47;;;3.50;;
2123;SDS011;1068;52.460;13.528;2023-06-22T07:53:45;3.80;;;3.40;;
2123;SDS011;1068;52.460;13.528;2023-06-22T07:56:12;3.70;;;3.40;;
2123;SDS011;1068;52.460;13.528;2023-06-22T07:58:43;3.77;;;3.40;;
2123;SDS011;1068;52.460;13.528;2023-06-22T08:01:10;3.90;;;3.60;;
2123;SDS011;1068;52.460;13.528;2023-06-22T08:03:37;3.13;;;2.97;;
2123;SDS011;1068;52.460;13.528;2023-06-22T08:06:07;4.03;;;3.70;;
2123;SDS011;1068;52.460;13.528;2023-06-22T08:08:34;4.10;;;3.80;;
2123;SDS011;1068;52.460;13.528;2023-06-22T08:11:01;4.10;;;3.70;;
2123;SDS011;1068;52.460;13.528;2023-06-22T08:13:28;3.57;;;3.27;;
2123;SDS011;1068;52.460;13.528;2023-06-22T08:15:55;4.30;;;3.20;;
2123;SDS011;1068;52.460;13.528;2023-06-22T08:18:22;3.73;;;3.40;;
2123;SDS011;1068;52.460;13.528;2023-06-22T08:20:49;3.83;;;2.80;;
2123;SDS011;1068;52.460;13.528;2023-06-22T08:23:17;4.13;;;2.83;;
2123;SDS011;1068;52.460;13.528;2023-06-22T08:25:44;3.60;;;3.33;;
2123;SDS011;1068;52.460;13.528;2023-06-22T08:28:11;4.90;;;2.83;;
2123;SDS011;1068;52.460;13.528;2023-06-22T08:30:38;2.60;;;2.40;;
2123;SDS011;1068;52.460;13.528;2023-06-22T08:33:05;3.03;;;2.80;;
2123;SDS011;1068;52.460;13.528;2023-06-22T08:35:32;3.17;;;2.97;;
2123;SDS011;1068;52.460;13.528;2023-06-22T08:37:59;2.90;;;2.80;;
2123;SDS011;1068;52.460;13.528;2023-06-22T08:40:28;2.60;;;2.50;;
2123;SDS011;1068;52.460;13.528;2023-06-22T08:42:55;2.87;;;2.67;;
2123;SDS011;1068;52.460;13.528;2023-06-22T08:45:22;3.20;;;2.90;;
2123;SDS011;1068;52.460;13.528;2023-06-22T08:47:49;2.60;;;2.40;;
2123;SDS011;1068;52.460;13.528;2023-06-22T08:50:16;3.23;;;3.03;;
2123;SDS011;1068;52.460;13.528;2023-06-22T08:52:43;3.03;;;2.70;;
2123;SDS011;1068;52.460;13.528;2023-06-22T08:55:10;4.60;;;3.23;;
2123;SDS011;1068;52.460;13.528;2023-06-22T08:57:39;3.20;;;3.00;;
2123;SDS011;1068;52.460;13.528;2023-06-22T09:00:06;3.47;;;3.17;;
2123;SDS011;1068;52.460;13.528;2023-06-22T09:02:42;3.10;;;2.87;;
2123;SDS011;1068;52.460;13.528;2023-06-22T09:05:09;3.07;;;2.77;;
2123;SDS011;1068;52.460;13.528;2023-06-22T09:07:36;2.83;;;2.63;;
2123;SDS011;1068;52.460;13.528;2023-06-22T09:10:03;2.80;;;2.60;;
2123;SDS011;1068;52.460;13.528;2023-06-22T09:12:30;3.30;;;3.10;;
2123;SDS011;1068;52.460;13.528;2023-06-22T09:14:59;5.10;;;2.40;;
2123;SDS011;1068;52.460;13.528;2023-06-22T09:17:26;3.23;;;2.67;;
2123;SDS011;1068;52.460;13.528;2023-06-22T09:19:53;2.93;;;2.10;;
2123;SDS011;1068;52.460;13.528;2023-06-22T09:22:20;3.30;;;2.47;;
2123;SDS011;1068;52.460;13.528;2023-06-22T09:24:47;2.63;;;2.53;;
2123;SDS011;1068;52.460;13.528;2023-06-22T09:27:13;3.13;;;2.83;;
2123;SDS011;1068;52.460;13.528;2023-06-22T09:29:40;2.00;;;1.90;;
2123;SDS011;1068;52.460;13.528;2023-06-22T09:32:09;2.63;;;2.43;;
2123;SDS011;1068;52.460;13.528;2023-06-22T09:34:35;2.50;;;2.30;;
2123;SDS011;1068;52.460;13.528;2023-06-22T09:37:02;3.80;;;2.70;;
2123;SDS011;1068;52.460;13.528;2023-06-22T09:39:29;2.37;;;2.10;;
2123;SDS011;1068;52.460;13.528;2023-06-22T09:41:57;2.27;;;2.17;;
2123;SDS011;1068;52.460;13.528;2023-06-22T09:44:25;2.73;;;2.40;;
2123;SDS011;1068;52.460;13.528;2023-06-22T09:46:51;2.60;;;2.40;;
2123;SDS011;1068;52.460;13.528;2023-06-22T09:49:20;3.20;;;3.00;;
2123;SDS011;1068;52.460;13.528;2023-06-22T09:51:46;2.43;;;2.23;;
2123;SDS011;1068;52.460;13.528;2023-06-22T09:54:14;3.43;;;2.63;;
2123;SDS011;1068;52.460;13.528;2023-06-22T09:56:41;3.20;;;2.90;;
2123;SDS011;1068;52.460;13.528;2023-06-22T09:59:08;2.47;;;2.27;;
2123;SDS011;1068;52.460;13.528;2023-06-22T10:01:35;3.03;;;2.67;;
2123;SDS011;1068;52.460;13.528;2023-06-22T10:04:02;2.47;;;2.27;;
2123;SDS011;1068;52.460;13.528;2023-06-22T10:06:30;2.60;;;2.40;;
2123;SDS011;1068;52.460;13.528;2023-06-22T10:08:57;2.50;;;2.30;;
2123;SDS011;1068;52.460;13.528;2023-06-22T10:11:24;3.87;;;2.80;;
2123;SDS011;1068;52.460;13.528;2023-06-22T10:13:55;3.53;;;2.83;;
2123;SDS011;1068;52.460;13.528;2023-06-22T10:16:23;3.20;;;3.00;;
2123;SDS011;1068;52.460;13.528;2023-06-22T10:18:51;3.30;;;3.00;;
2123;SDS011;1068;52.460;13.528;2023-06-22T10:21:18;5.17;;;3.30;;
2123;SDS011;1068;52.460;13.528;2023-06-22T10:23:46;2.70;;;2.50;;
2123;SDS011;1068;52.460;13.528;2023-06-22T10:26:13;2.83;;;2.50;;
2123;SDS011;1068;52.460;13.528;2023-06-22T10:28:40;2.93;;;2.50;;
2123;SDS011;1068;52.460;13.528;2023-06-22T10:31:07;2.73;;;2.53;;
2123;SDS011;1068;52.460;13.528;2023-06-22T10:33:34;3.17;;;2.50;;
2123;SDS011;1068;52.460;13.528;2023-06-22T10:36:01;3.10;;;2.83;;
2123;SDS011;1068;52.460;13.528;2023-06-22T10:38:28;3.47;;;3.20;;
2123;SDS011;1068;52.460;13.528;2023-06-22T10:40:56;2.77;;;2.60;;
2123;SDS011;1068;52.460;13.528;2023-06-22T10:43:23;3.40;;;2.97;;
2123;SDS011;1068;52.460;13.528;2023-06-22T10:45:50;4.00;;;2.80;;
2123;SDS011;1068;52.460;13.528;2023-06-22T10:48:17;5.33;;;2.60;;
2123;SDS011;1068;52.460;13.528;2023-06-22T10:50:43;2.80;;;2.60;;
2123;SDS011;1068;52.460;13.528;2023-06-22T10:53:10;3.30;;;2.63;;
2123;SDS011;1068;52.460;13.528;2023-06-22T10:55:37;2.40;;;2.27;;
2123;SDS011;1068;52.460;13.528;2023-06-22T10:58:05;3.23;;;3.03;;
2123;SDS011;1068;52.460;13.528;2023-06-22T11:00:32;3.20;;;3.00;;
2123;SDS011;1068;52.460;13.528;2023-06-22T11:02:59;3.20;;;3.00;;
2123;SDS011;1068;52.460;13.528;2023-06-22T11:05:26;2.90;;;2.70;;
2123;SDS011;1068;52.460;13.528;2023-06-22T11:07:53;5.40;;;3.60;;
2123;SDS011;1068;52.460;13.528;2023-06-22T11:10:20;2.73;;;2.63;;
2123;SDS011;1068;52.460;13.528;2023-06-22T11:12:47;3.17;;;2.97;;
2123;SDS011;1068;52.460;13.528;2023-06-22T11:15:15;3.33;;;3.13;;
2123;SDS011;1068;52.460;13.528;2023-06-22T11:17:42;3.03;;;2.80;;
2123;SDS011;1068;52.460;13.528;2023-06-22T11:20:09;3.03;;;2.80;;
2123;SDS011;1068;52.460;13.528;2023-06-22T11:22:37;2.57;;;2.47;;
2123;SDS011;1068;52.460;13.528;2023-06-22T11:25:04;3.10;;;2.60;;
2123;SDS011;1068;52.460;13.528;2023-06-22T11:27:31;3.10;;;2.73;;
2123;SDS011;1068;52.460;13.528;2023-06-22T11:29:58;2.93;;;2.63;;
2123;SDS011;1068;52.460;13.528;2023-06-22T11:32:26;3.00;;;2.80;;
2123;SDS011;1068;52.460;13.528;2023-06-22T11:34:53;3.27;;;3.07;;
2123;SDS011;1068;52.460;13.528;2023-06-22T11:37:20;3.40;;;3.20;;
2123;SDS011;1068;52.460;13.528;2023-06-22T11:39:47;3.10;;;2.90;;
2123;SDS011;1068;52.460;13.528;2023-06-22T11:42:14;3.63;;;3.33;;
2123;SDS011;1068;52.460;13.528;2023-06-22T11:44:41;3.30;;;3.10;;
2123;SDS011;1068;52.460;13.528;2023-06-22T11:47:08;3.17;;;2.90;;
2123;SDS011;1068;52.460;13.528;2023-06-22T11:49:37;3.00;;;2.77;;
2123;SDS011;1068;52.460;13.528;2023-06-22T11:52:05;3.20;;;3.00;;
2123;SDS011;1068;52.460;13.528;2023-06-22T11:54:31;3.77;;;3.47;;
2123;SDS011;1068;52.460;13.528;2023-06-22T11:56:58;3.57;;;3.37;;
2123;SDS011;1068;52.460;13.528;2023-06-22T11:59:26;3.63;;;3.43;;
2123;SDS011;1068;52.460;13.528;2023-06-22T12:01:53;4.00;;;3.67;;
2123;SDS011;1068;52.460;13.528;2023-06-22T12:04:20;3.37;;;3.17;;
2123;SDS011;1068;52.460;13.528;2023-06-22T12:06:48;4.13;;;2.83;;
2123;SDS011;1068;52.460;13.528;2023-06-22T12:09:15;3.23;;;3.10;;
2123;SDS011;1068;52.460;13.528;2023-06-22T12:11:42;3.83;;;2.97;;
2123;SDS011;1068;52.460;13.528;2023-06-22T12:14:09;3.70;;;3.43;;
2123;SDS011;1068;52.460;13.528;2023-06-22T12:16:36;5.90;;;3.77;;
2123;SDS011;1068;52.460;13.528;2023-06-22T12:19:03;5.80;;;3.37;;
2123;SDS011;1068;52.460;13.528;2023-06-22T12:21:30;3.10;;;2.90;;
2123;SDS011;1068;52.460;13.528;2023-06-22T12:23:58;3.30;;;3.10;;
2123;SDS011;1068;52.460;13.528;2023-06-22T12:26:25;4.10;;;3.80;;
2123;SDS011;1068;52.460;13.528;2023-06-22T12:28:52;4.37;;;3.97;;
2123;SDS011;1068;52.460;13.528;2023-06-22T12:31:19;4.17;;;3.87;;
2123;SDS011;1068;52.460;13.528;2023-06-22T12:33:46;4.10;;;3.77;;
2123;SDS011;1068;52.460;13.528;2023-06-22T12:36:13;3.70;;;3.50;;
2123;SDS011;1068;52.460;13.528;2023-06-22T12:38:41;3.10;;;2.90;;
2123;SDS011;1068;52.460;13.528;2023-06-22T12:41:09;4.27;;;3.97;;
2123;SDS011;1068;52.460;13.528;2023-06-22T12:43:36;3.37;;;3.17;;
2123;SDS011;1068;52.460;13.528;2023-06-22T12:46:03;3.40;;;3.20;;
2123;SDS011;1068;52.460;13.528;2023-06-22T12:48:30;4.20;;;4.00;;
2123;SDS011;1068;52.460;13.528;2023-06-22T12:50:57;4.00;;;3.80;;
2123;SDS011;1068;52.460;13.528;2023-06-22T12:53:23;4.13;;;3.93;;
2123;SDS011;1068;52.460;13.528;2023-06-22T12:55:52;4.60;;;4.27;;
2123;SDS011;1068;52.460;13.528;2023-06-22T12:58:20;3.77;;;3.57;;
2123;SDS011;1068;52.460;13.528;2023-06-22T13:00:48;3.80;;;3.60;;
2123;SDS011;1068;52.460;13.528;2023-06-22T13:03:14;3.93;;;3.73;;
2123;SDS011;1068;52.460;13.528;2023-06-22T13:05:41;4.20;;;3.90;;
2123;SDS011;1068;52.460;13.528;2023-06-22T13:08:08;3.73;;;3.43;;
2123;SDS011;1068;52.460;13.528;2023-06-22T13:10:35;4.57;;;4.27;;
2123;SDS011;1068;52.460;13.528;2023-06-22T13:13:02;3.70;;;3.50;;
2123;SDS011;1068;52.460;13.528;2023-06-22T13:15:31;4.10;;;3.80;;
2123;SDS011;1068;52.460;13.528;2023-06-22T13:17:57;4.40;;;4.00;;
2123;SDS011;1068;52.460;13.528;2023-06-22T13:20:25;3.70;;;3.40;;
2123;SDS011;1068;52.460;13.528;2023-06-22T13:22:53;4.83;;;4.53;;
2123;SDS011;1068;52.460;13.528;2023-06-22T13:25:21;6.33;;;4.33;;
2123;SDS011;1068;52.460;13.528;2023-06-22T13:27:51;3.67;;;3.47;;
2123;SDS011;1068;52.460;13.528;2023-06-22T13:30:18;4.47;;;4.17;;
2123;SDS011;1068;52.460;13.528;2023-06-22T13:32:46;4.10;;;3.80;;
2123;SDS011;1068;52.460;13.528;2023-06-22T13:35:13;4.43;;;4.13;;
2123;SDS011;1068;52.460;13.528;2023-06-22T13:37:40;4.60;;;4.20;;
2123;SDS011;1068;52.460;13.528;2023-06-22T13:40:07;3.93;;;3.73;;
2123;SDS011;1068;52.460;13.528;2023-06-22T13:42:34;4.70;;;4.40;;
2123;SDS011;1068;52.460;13.528;2023-06-22T13:45:01;6.80;;;4.27;;
2123;SDS011;1068;52.460;13.528;2023-06-22T13:47:28;4.30;;;4.10;;
2123;SDS011;1068;52.460;13.528;2023-06-22T13:49:57;5.20;;;4.70;;
2123;SDS011;1068;52.460;13.528;2023-06-22T13:52:24;4.10;;;3.80;;
2123;SDS011;1068;52.460;13.528;2023-06-22T13:54:51;4.03;;;3.83;;
2123;SDS011;1068;52.460;13.528;2023-06-22T13:57:17;4.43;;;4.13;;
2123;SDS011;1068;52.460;13.528;2023-06-22T13:59:44;4.43;;;4.13;;
2123;SDS011;1068;52.460;13.528;2023-06-22T14:02:11;4.10;;;3.83;;
2123;SDS011;1068;52.460;13.528;2023-06-22T14:04:38;5.20;;;4.80;;
2123;SDS011;1068;52.460;13.528;2023-06-22T14:07:06;4.97;;;4.67;;
2123;SDS011;1068;52.460;13.528;2023-06-22T14:09:33;4.40;;;4.07;;
2123;SDS011;1068;52.460;13.528;2023-06-22T14:12:02;4.60;;;4.30;;
2123;SDS011;1068;52.460;13.528;2023-06-22T14:14:29;4.07;;;3.87;;
2123;SDS011;1068;52.460;13.528;2023-06-22T14:16:56;4.90;;;4.60;;
2123;SDS011;1068;52.460;13.528;2023-06-22T14:19:23;4.43;;;4.23;;
2123;SDS011;1068;52.460;13.528;2023-06-22T14:21:50;7.20;;;4.73;;
2123;SDS011;1068;52.460;13.528;2023-06-22T14:24:18;4.67;;;4.37;;
2123;SDS011;1068;52.460;13.528;2023-06-22T14:26:45;4.27;;;4.07;;
2123;SDS011;1068;52.460;13.528;2023-06-22T14:29:12;4.70;;;4.30;;
2123;SDS011;1068;52.460;13.528;2023-06-22T14:31:39;4.77;;;4.43;;
2123;SDS011;1068;52.460;13.528;2023-06-22T14:34:06;4.80;;;4.50;;
2123;SDS011;1068;52.460;13.528;2023-06-22T14:36:33;4.73;;;4.33;;
2123;SDS011;1068;52.460;13.528;2023-06-22T14:38:59;5.03;;;4.77;;
2123;SDS011;1068;52.460;13.528;2023-06-22T14:41:28;5.00;;;4.53;;
2123;SDS011;1068;52.460;13.528;2023-06-22T14:43:55;4.67;;;4.37;;
2123;SDS011;1068;52.460;13.528;2023-06-22T14:46:22;4.27;;;3.97;;
2123;SDS011;1068;52.460;13.528;2023-06-22T14:48:49;4.07;;;3.87;;
2123;SDS011;1068;52.460;13.528;2023-06-22T14:51:16;4.70;;;4.40;;
2123;SDS011;1068;52.460;13.528;2023-06-22T14:53:43;4.97;;;4.47;;